sensor_id;sensor_type;location;lat;lon;timestamp;P1;durP1;ratioP1;P2;durP2;ratioP2
74707;SDS011;63360;50.104;8.074;2023-09-19T00:00:16;3.13;;;1.45;;
74707;SDS011;63360;50.104;8.074;2023-09-19T00:02:46;4.00;;;1.48;;
74707;SDS011;63360;50.104;8.074;2023-09-19T00:05:13;4.32;;;1.35;;
74707;SDS011;63360;50.104;8.074;2023-09-19T00:07:40;3.58;;;1.60;;
74707;SDS011;63360;50.104;8.074;2023-09-19T00:10:06;4.30;;;1.47;;
74707;SDS011;63360;50.104;8.074;2023-09-19T00:12:35;3.28;;;1.45;;
74707;SDS011;63360;50.104;8.074;2023-09-19T00:15:02;2.83;;;1.50;;
74707;SDS011;63360;50.104;8.074;2023-09-19T00:17:32;3.50;;;1.40;;
74707;SDS011;63360;50.104;8.074;2023-09-19T00:19:58;4.55;;;1.50;;
74707;SDS011;63360;50.104;8.074;2023-09-19T00:22:25;2.93;;;1.30;;
74707;SDS011;63360;50.104;8.074;2023-09-19T00:24:52;4.55;;;1.50;;
74707;SDS011;63360;50.104;8.074;2023-09-19T00:27:19;3.05;;;1.30;;
74707;SDS011;63360;50.104;8.074;2023-09-19T00:29:46;3.45;;;1.58;;
74707;SDS011;63360;50.104;8.074;2023-09-19T00:32:12;3.60;;;1.40;;
74707;SDS011;63360;50.104;8.074;2023-09-19T00:34:38;5.37;;;1.60;;
74707;SDS011;63360;50.104;8.074;2023-09-19T00:37:05;3.55;;;1.50;;
74707;SDS011;63360;50.104;8.074;2023-09-19T00:39:31;2.92;;;1.58;;
74707;SDS011;63360;50.104;8.074;2023-09-19T00:41:57;4.43;;;2.00;;
74707;SDS011;63360;50.104;8.074;2023-09-19T00:44:24;4.13;;;1.77;;
74707;SDS011;63360;50.104;8.074;2023-09-19T00:46:50;4.17;;;2.10;;
74707;SDS011;63360;50.104;8.074;2023-09-19T00:49:18;4.20;;;2.10;;
74707;SDS011;63360;50.104;8.074;2023-09-19T00:51:48;4.80;;;1.80;;
74707;SDS011;63360;50.104;8.074;2023-09-19T00:54:14;4.03;;;2.05;;
74707;SDS011;63360;50.104;8.074;2023-09-19T00:56:45;5.40;;;1.60;;
74707;SDS011;63360;50.104;8.074;2023-09-19T00:59:11;5.03;;;1.70;;
74707;SDS011;63360;50.104;8.074;2023-09-19T01:01:38;4.13;;;1.83;;
74707;SDS011;63360;50.104;8.074;2023-09-19T01:04:06;5.93;;;1.95;;
74707;SDS011;63360;50.104;8.074;2023-09-19T01:06:33;6.13;;;1.70;;
74707;SDS011;63360;50.104;8.074;2023-09-19T01:08:59;4.00;;;1.70;;
74707;SDS011;63360;50.104;8.074;2023-09-19T01:11:28;4.83;;;2.00;;
74707;SDS011;63360;50.104;8.074;2023-09-19T01:16:48;2.97;;;1.60;;
74707;SDS011;63360;50.104;8.074;2023-09-19T01:29:42;3.20;;;1.80;;
74707;SDS011;63360;50.104;8.074;2023-09-19T01:32:11;4.20;;;1.60;;
74707;SDS011;63360;50.104;8.074;2023-09-19T01:34:58;3.83;;;1.60;;
74707;SDS011;63360;50.104;8.074;2023-09-19T01:37:30;5.17;;;2.00;;
74707;SDS011;63360;50.104;8.074;2023-09-19T01:39:58;4.40;;;1.58;;
74707;SDS011;63360;50.104;8.074;2023-09-19T01:42:41;3.08;;;1.38;;
74707;SDS011;63360;50.104;8.074;2023-09-19T01:45:12;3.67;;;1.60;;
74707;SDS011;63360;50.104;8.074;2023-09-19T01:47:43;2.90;;;1.48;;
74707;SDS011;63360;50.104;8.074;2023-09-19T01:52:59;4.22;;;1.60;;
74707;SDS011;63360;50.104;8.074;2023-09-19T01:55:28;3.97;;;1.50;;
74707;SDS011;63360;50.104;8.074;2023-09-19T01:58:01;3.10;;;1.40;;
74707;SDS011;63360;50.104;8.074;2023-09-19T02:00:27;4.90;;;1.50;;
74707;SDS011;63360;50.104;8.074;2023-09-19T02:02:55;3.13;;;1.40;;
74707;SDS011;63360;50.104;8.074;2023-09-19T02:05:24;2.47;;;1.23;;
74707;SDS011;63360;50.104;8.074;2023-09-19T02:07:51;3.97;;;1.30;;
74707;SDS011;63360;50.104;8.074;2023-09-19T02:10:19;4.22;;;1.35;;
74707;SDS011;63360;50.104;8.074;2023-09-19T02:12:45;3.88;;;1.25;;
74707;SDS011;63360;50.104;8.074;2023-09-19T02:15:12;3.37;;;1.30;;
74707;SDS011;63360;50.104;8.074;2023-09-19T02:17:38;4.20;;;1.50;;
74707;SDS011;63360;50.104;8.074;2023-09-19T02:20:06;2.60;;;1.30;;
74707;SDS011;63360;50.104;8.074;2023-09-19T02:22:36;4.50;;;1.70;;
74707;SDS011;63360;50.104;8.074;2023-09-19T02:25:02;5.00;;;1.60;;
74707;SDS011;63360;50.104;8.074;2023-09-19T02:27:33;3.27;;;1.40;;
74707;SDS011;63360;50.104;8.074;2023-09-19T02:29:59;3.80;;;1.13;;
74707;SDS011;63360;50.104;8.074;2023-09-19T02:32:30;4.00;;;1.50;;
74707;SDS011;63360;50.104;8.074;2023-09-19T02:35:02;3.60;;;1.77;;
74707;SDS011;63360;50.104;8.074;2023-09-19T02:37:31;2.47;;;1.30;;
74707;SDS011;63360;50.104;8.074;2023-09-19T02:39:57;4.60;;;1.30;;
74707;SDS011;63360;50.104;8.074;2023-09-19T02:42:23;4.47;;;1.15;;
74707;SDS011;63360;50.104;8.074;2023-09-19T02:44:50;5.28;;;1.30;;
74707;SDS011;63360;50.104;8.074;2023-09-19T02:47:16;3.25;;;1.48;;
74707;SDS011;63360;50.104;8.074;2023-09-19T02:49:42;4.00;;;1.30;;
74707;SDS011;63360;50.104;8.074;2023-09-19T02:52:09;3.53;;;1.17;;
74707;SDS011;63360;50.104;8.074;2023-09-19T02:54:37;4.45;;;1.60;;
74707;SDS011;63360;50.104;8.074;2023-09-19T02:57:03;3.78;;;1.30;;
74707;SDS011;63360;50.104;8.074;2023-09-19T02:59:32;2.80;;;1.17;;
74707;SDS011;63360;50.104;8.074;2023-09-19T03:01:59;2.78;;;1.30;;
74707;SDS011;63360;50.104;8.074;2023-09-19T03:04:26;3.77;;;1.47;;
74707;SDS011;63360;50.104;8.074;2023-09-19T03:06:53;4.43;;;1.40;;
74707;SDS011;63360;50.104;8.074;2023-09-19T03:09:24;2.90;;;1.42;;
74707;SDS011;63360;50.104;8.074;2023-09-19T03:11:51;3.97;;;1.20;;
74707;SDS011;63360;50.104;8.074;2023-09-19T03:14:17;4.18;;;1.20;;
74707;SDS011;63360;50.104;8.074;2023-09-19T03:16:46;2.83;;;1.50;;
74707;SDS011;63360;50.104;8.074;2023-09-19T03:19:12;3.08;;;1.30;;
74707;SDS011;63360;50.104;8.074;2023-09-19T03:21:41;3.97;;;1.38;;
74707;SDS011;63360;50.104;8.074;2023-09-19T03:24:07;2.30;;;1.10;;
74707;SDS011;63360;50.104;8.074;2023-09-19T03:26:34;5.22;;;1.25;;
74707;SDS011;63360;50.104;8.074;2023-09-19T03:29:03;3.37;;;1.33;;
74707;SDS011;63360;50.104;8.074;2023-09-19T03:31:32;3.33;;;1.33;;
74707;SDS011;63360;50.104;8.074;2023-09-19T03:33:58;4.57;;;1.27;;
74707;SDS011;63360;50.104;8.074;2023-09-19T03:36:25;2.70;;;1.35;;
74707;SDS011;63360;50.104;8.074;2023-09-19T03:38:54;5.03;;;1.55;;
74707;SDS011;63360;50.104;8.074;2023-09-19T03:41:20;5.17;;;1.40;;
74707;SDS011;63360;50.104;8.074;2023-09-19T03:43:46;3.83;;;1.58;;
74707;SDS011;63360;50.104;8.074;2023-09-19T03:46:13;4.53;;;1.50;;
74707;SDS011;63360;50.104;8.074;2023-09-19T03:48:41;4.32;;;1.50;;
74707;SDS011;63360;50.104;8.074;2023-09-19T03:51:08;5.35;;;1.60;;
74707;SDS011;63360;50.104;8.074;2023-09-19T03:53:35;5.57;;;1.70;;
74707;SDS011;63360;50.104;8.074;2023-09-19T03:56:01;3.40;;;1.25;;
74707;SDS011;63360;50.104;8.074;2023-09-19T03:58:28;6.70;;;1.80;;
74707;SDS011;63360;50.104;8.074;2023-09-19T04:00:55;3.05;;;1.42;;
74707;SDS011;63360;50.104;8.074;2023-09-19T04:03:21;4.38;;;1.60;;
74707;SDS011;63360;50.104;8.074;2023-09-19T04:05:48;4.83;;;1.90;;
74707;SDS011;63360;50.104;8.074;2023-09-19T04:08:14;4.63;;;1.60;;
74707;SDS011;63360;50.104;8.074;2023-09-19T04:10:43;5.70;;;1.55;;
74707;SDS011;63360;50.104;8.074;2023-09-19T04:13:11;4.53;;;2.05;;
74707;SDS011;63360;50.104;8.074;2023-09-19T04:15:37;3.28;;;1.80;;
74707;SDS011;63360;50.104;8.074;2023-09-19T04:18:03;3.83;;;1.60;;
74707;SDS011;63360;50.104;8.074;2023-09-19T04:20:30;5.40;;;1.80;;
74707;SDS011;63360;50.104;8.074;2023-09-19T04:22:56;4.00;;;1.67;;
74707;SDS011;63360;50.104;8.074;2023-09-19T04:25:22;3.72;;;1.80;;
74707;SDS011;63360;50.104;8.074;2023-09-19T04:27:49;5.07;;;1.85;;
74707;SDS011;63360;50.104;8.074;2023-09-19T04:30:15;5.97;;;1.90;;
74707;SDS011;63360;50.104;8.074;2023-09-19T04:32:42;3.25;;;1.63;;
74707;SDS011;63360;50.104;8.074;2023-09-19T04:35:09;4.93;;;1.70;;
74707;SDS011;63360;50.104;8.074;2023-09-19T04:37:37;4.68;;;1.90;;
74707;SDS011;63360;50.104;8.074;2023-09-19T04:40:05;6.93;;;2.00;;
74707;SDS011;63360;50.104;8.074;2023-09-19T04:42:32;3.57;;;1.53;;
74707;SDS011;63360;50.104;8.074;2023-09-19T04:44:58;6.07;;;2.10;;
74707;SDS011;63360;50.104;8.074;2023-09-19T04:47:26;5.40;;;1.77;;
74707;SDS011;63360;50.104;8.074;2023-09-19T04:49:52;3.45;;;1.63;;
74707;SDS011;63360;50.104;8.074;2023-09-19T04:52:19;5.75;;;1.60;;
74707;SDS011;63360;50.104;8.074;2023-09-19T04:54:46;4.53;;;1.40;;
74707;SDS011;63360;50.104;8.074;2023-09-19T04:57:14;8.32;;;1.80;;
74707;SDS011;63360;50.104;8.074;2023-09-19T04:59:42;7.22;;;1.55;;
74707;SDS011;63360;50.104;8.074;2023-09-19T05:02:08;7.70;;;1.85;;
74707;SDS011;63360;50.104;8.074;2023-09-19T05:04:34;5.80;;;1.80;;
74707;SDS011;63360;50.104;8.074;2023-09-19T05:07:01;5.13;;;1.67;;
74707;SDS011;63360;50.104;8.074;2023-09-19T05:09:29;4.70;;;1.60;;
74707;SDS011;63360;50.104;8.074;2023-09-19T05:11:55;4.68;;;1.58;;
74707;SDS011;63360;50.104;8.074;2023-09-19T05:14:22;3.53;;;1.52;;
74707;SDS011;63360;50.104;8.074;2023-09-19T05:16:49;6.10;;;1.80;;
74707;SDS011;63360;50.104;8.074;2023-09-19T05:19:16;3.53;;;1.53;;
74707;SDS011;63360;50.104;8.074;2023-09-19T05:21:43;7.20;;;1.50;;
74707;SDS011;63360;50.104;8.074;2023-09-19T05:24:09;6.72;;;1.80;;
74707;SDS011;63360;50.104;8.074;2023-09-19T05:26:37;5.15;;;1.65;;
74707;SDS011;63360;50.104;8.074;2023-09-19T05:29:03;4.70;;;1.70;;
74707;SDS011;63360;50.104;8.074;2023-09-19T05:31:31;3.97;;;1.80;;
74707;SDS011;63360;50.104;8.074;2023-09-19T05:33:57;4.32;;;1.73;;
74707;SDS011;63360;50.104;8.074;2023-09-19T05:36:24;5.88;;;1.65;;
74707;SDS011;63360;50.104;8.074;2023-09-19T05:38:51;5.40;;;1.60;;
74707;SDS011;63360;50.104;8.074;2023-09-19T05:41:19;5.55;;;1.73;;
74707;SDS011;63360;50.104;8.074;2023-09-19T05:43:45;6.03;;;1.70;;
74707;SDS011;63360;50.104;8.074;2023-09-19T05:46:11;6.82;;;1.90;;
74707;SDS011;63360;50.104;8.074;2023-09-19T05:48:38;3.05;;;1.52;;
74707;SDS011;63360;50.104;8.074;2023-09-19T05:51:05;6.60;;;1.88;;
74707;SDS011;63360;50.104;8.074;2023-09-19T05:53:32;5.90;;;1.70;;
74707;SDS011;63360;50.104;8.074;2023-09-19T05:55:58;4.77;;;1.60;;
74707;SDS011;63360;50.104;8.074;2023-09-19T05:58:24;5.38;;;1.63;;
74707;SDS011;63360;50.104;8.074;2023-09-19T06:00:51;5.32;;;1.85;;
74707;SDS011;63360;50.104;8.074;2023-09-19T06:03:18;6.05;;;1.50;;
74707;SDS011;63360;50.104;8.074;2023-09-19T06:05:45;3.03;;;1.33;;
74707;SDS011;63360;50.104;8.074;2023-09-19T06:08:12;4.13;;;1.30;;
74707;SDS011;63360;50.104;8.074;2023-09-19T06:10:38;5.45;;;1.45;;
74707;SDS011;63360;50.104;8.074;2023-09-19T06:13:05;4.50;;;1.85;;
74707;SDS011;63360;50.104;8.074;2023-09-19T06:15:32;4.93;;;1.67;;
74707;SDS011;63360;50.104;8.074;2023-09-19T06:17:59;6.30;;;1.65;;
74707;SDS011;63360;50.104;8.074;2023-09-19T06:20:26;5.93;;;1.40;;
74707;SDS011;63360;50.104;8.074;2023-09-19T06:22:53;3.38;;;1.50;;
74707;SDS011;63360;50.104;8.074;2023-09-19T06:25:19;4.72;;;1.52;;
74707;SDS011;63360;50.104;8.074;2023-09-19T06:27:47;4.38;;;1.50;;
74707;SDS011;63360;50.104;8.074;2023-09-19T06:30:14;3.30;;;1.42;;
74707;SDS011;63360;50.104;8.074;2023-09-19T06:32:41;6.33;;;1.40;;
74707;SDS011;63360;50.104;8.074;2023-09-19T06:35:11;4.95;;;1.60;;
74707;SDS011;63360;50.104;8.074;2023-09-19T06:37:37;4.40;;;1.50;;
74707;SDS011;63360;50.104;8.074;2023-09-19T06:40:10;4.95;;;1.45;;
74707;SDS011;63360;50.104;8.074;2023-09-19T06:42:41;7.97;;;2.13;;
74707;SDS011;63360;50.104;8.074;2023-09-19T06:45:08;4.57;;;1.43;;
74707;SDS011;63360;50.104;8.074;2023-09-19T06:47:37;3.22;;;1.30;;
74707;SDS011;63360;50.104;8.074;2023-09-19T06:50:03;3.97;;;1.20;;
74707;SDS011;63360;50.104;8.074;2023-09-19T06:52:32;4.18;;;1.33;;
74707;SDS011;63360;50.104;8.074;2023-09-19T06:54:59;5.28;;;1.30;;
74707;SDS011;63360;50.104;8.074;2023-09-19T06:57:25;5.43;;;1.40;;
74707;SDS011;63360;50.104;8.074;2023-09-19T06:59:52;6.32;;;2.03;;
74707;SDS011;63360;50.104;8.074;2023-09-19T07:02:18;5.93;;;1.38;;
74707;SDS011;63360;50.104;8.074;2023-09-19T07:04:47;5.03;;;1.40;;
74707;SDS011;63360;50.104;8.074;2023-09-19T07:07:13;3.78;;;1.23;;
74707;SDS011;63360;50.104;8.074;2023-09-19T07:09:40;3.67;;;1.57;;
74707;SDS011;63360;50.104;8.074;2023-09-19T07:12:06;7.82;;;1.55;;
74707;SDS011;63360;50.104;8.074;2023-09-19T07:14:32;2.40;;;1.10;;
74707;SDS011;63360;50.104;8.074;2023-09-19T07:16:59;4.78;;;1.33;;
74707;SDS011;63360;50.104;8.074;2023-09-19T07:19:26;4.10;;;1.15;;
74707;SDS011;63360;50.104;8.074;2023-09-19T07:21:54;2.97;;;1.13;;
74707;SDS011;63360;50.104;8.074;2023-09-19T07:24:21;6.15;;;1.45;;
74707;SDS011;63360;50.104;8.074;2023-09-19T07:26:50;5.45;;;1.48;;
74707;SDS011;63360;50.104;8.074;2023-09-19T07:29:16;3.80;;;1.10;;
74707;SDS011;63360;50.104;8.074;2023-09-19T07:31:42;4.13;;;1.30;;
74707;SDS011;63360;50.104;8.074;2023-09-19T07:34:10;4.13;;;1.10;;
74707;SDS011;63360;50.104;8.074;2023-09-19T07:36:36;4.75;;;1.30;;
74707;SDS011;63360;50.104;8.074;2023-09-19T07:39:04;4.78;;;1.20;;
74707;SDS011;63360;50.104;8.074;2023-09-19T07:41:48;5.07;;;1.20;;
74707;SDS011;63360;50.104;8.074;2023-09-19T07:44:16;5.63;;;1.05;;
74707;SDS011;63360;50.104;8.074;2023-09-19T07:46:43;3.60;;;1.20;;
74707;SDS011;63360;50.104;8.074;2023-09-19T07:49:10;5.85;;;1.50;;
74707;SDS011;63360;50.104;8.074;2023-09-19T07:51:37;6.18;;;1.55;;
74707;SDS011;63360;50.104;8.074;2023-09-19T07:54:04;4.13;;;1.30;;
74707;SDS011;63360;50.104;8.074;2023-09-19T07:56:31;6.45;;;0.90;;
74707;SDS011;63360;50.104;8.074;2023-09-19T07:58:58;6.53;;;1.30;;
74707;SDS011;63360;50.104;8.074;2023-09-19T08:01:25;4.47;;;1.00;;
74707;SDS011;63360;50.104;8.074;2023-09-19T08:03:53;5.30;;;1.17;;
74707;SDS011;63360;50.104;8.074;2023-09-19T08:06:20;7.22;;;1.48;;
74707;SDS011;63360;50.104;8.074;2023-09-19T08:08:46;6.20;;;1.35;;
74707;SDS011;63360;50.104;8.074;2023-09-19T08:11:13;6.90;;;1.30;;
74707;SDS011;63360;50.104;8.074;2023-09-19T08:13:45;6.28;;;1.15;;
74707;SDS011;63360;50.104;8.074;2023-09-19T08:16:15;3.72;;;1.20;;
74707;SDS011;63360;50.104;8.074;2023-09-19T08:18:42;6.13;;;1.13;;
74707;SDS011;63360;50.104;8.074;2023-09-19T08:21:11;4.55;;;1.25;;
74707;SDS011;63360;50.104;8.074;2023-09-19T08:23:38;6.87;;;1.83;;
74707;SDS011;63360;50.104;8.074;2023-09-19T08:26:05;3.58;;;1.00;;
74707;SDS011;63360;50.104;8.074;2023-09-19T08:28:35;4.22;;;1.10;;
74707;SDS011;63360;50.104;8.074;2023-09-19T08:31:04;4.32;;;1.20;;
74707;SDS011;63360;50.104;8.074;2023-09-19T08:33:35;3.65;;;1.08;;
74707;SDS011;63360;50.104;8.074;2023-09-19T08:36:02;4.40;;;1.30;;
74707;SDS011;63360;50.104;8.074;2023-09-19T08:38:31;3.88;;;1.10;;
74707;SDS011;63360;50.104;8.074;2023-09-19T08:40:59;4.05;;;1.00;;
74707;SDS011;63360;50.104;8.074;2023-09-19T08:43:26;5.95;;;1.00;;
74707;SDS011;63360;50.104;8.074;2023-09-19T08:45:55;5.82;;;1.00;;
74707;SDS011;63360;50.104;8.074;2023-09-19T08:48:25;5.07;;;1.10;;
74707;SDS011;63360;50.104;8.074;2023-09-19T08:53:26;4.75;;;1.00;;
74707;SDS011;63360;50.104;8.074;2023-09-19T08:55:54;6.03;;;1.15;;
74707;SDS011;63360;50.104;8.074;2023-09-19T08:58:26;5.47;;;1.83;;
74707;SDS011;63360;50.104;8.074;2023-09-19T09:00:56;5.27;;;1.40;;
74707;SDS011;63360;50.104;8.074;2023-09-19T09:03:23;3.53;;;1.10;;
74707;SDS011;63360;50.104;8.074;2023-09-19T09:05:51;5.13;;;1.05;;
74707;SDS011;63360;50.104;8.074;2023-09-19T09:08:19;4.43;;;1.35;;
74707;SDS011;63360;50.104;8.074;2023-09-19T09:10:46;6.65;;;1.17;;
74707;SDS011;63360;50.104;8.074;2023-09-19T09:13:12;4.30;;;1.33;;
74707;SDS011;63360;50.104;8.074;2023-09-19T09:15:40;5.63;;;1.10;;
74707;SDS011;63360;50.104;8.074;2023-09-19T09:18:07;4.18;;;1.02;;
74707;SDS011;63360;50.104;8.074;2023-09-19T09:20:33;5.70;;;1.20;;
74707;SDS011;63360;50.104;8.074;2023-09-19T09:22:59;5.13;;;1.15;;
74707;SDS011;63360;50.104;8.074;2023-09-19T09:25:46;5.83;;;1.20;;
74707;SDS011;63360;50.104;8.074;2023-09-19T09:28:19;6.80;;;1.35;;
74707;SDS011;63360;50.104;8.074;2023-09-19T09:30:46;6.05;;;1.30;;
74707;SDS011;63360;50.104;8.074;2023-09-19T09:33:12;7.75;;;1.30;;
74707;SDS011;63360;50.104;8.074;2023-09-19T09:35:49;4.88;;;1.08;;
74707;SDS011;63360;50.104;8.074;2023-09-19T09:38:18;8.33;;;1.10;;
74707;SDS011;63360;50.104;8.074;2023-09-19T09:40:45;5.38;;;1.15;;
74707;SDS011;63360;50.104;8.074;2023-09-19T09:43:24;4.38;;;1.10;;
74707;SDS011;63360;50.104;8.074;2023-09-19T09:46:05;4.60;;;1.30;;
74707;SDS011;63360;50.104;8.074;2023-09-19T09:48:37;7.20;;;1.13;;
74707;SDS011;63360;50.104;8.074;2023-09-19T09:51:05;4.37;;;1.00;;
74707;SDS011;63360;50.104;8.074;2023-09-19T09:53:34;4.82;;;1.08;;
74707;SDS011;63360;50.104;8.074;2023-09-19T09:56:07;4.70;;;1.23;;
74707;SDS011;63360;50.104;8.074;2023-09-19T09:58:34;6.93;;;1.40;;
74707;SDS011;63360;50.104;8.074;2023-09-19T10:01:04;6.57;;;1.00;;
74707;SDS011;63360;50.104;8.074;2023-09-19T10:03:41;5.17;;;1.17;;
74707;SDS011;63360;50.104;8.074;2023-09-19T10:06:15;8.32;;;1.30;;
74707;SDS011;63360;50.104;8.074;2023-09-19T10:09:01;2.67;;;0.95;;
74707;SDS011;63360;50.104;8.074;2023-09-19T10:11:32;4.25;;;1.05;;
74707;SDS011;63360;50.104;8.074;2023-09-19T10:14:00;7.45;;;1.05;;
74707;SDS011;63360;50.104;8.074;2023-09-19T10:16:29;4.17;;;0.90;;
74707;SDS011;63360;50.104;8.074;2023-09-19T10:18:58;7.05;;;1.27;;
74707;SDS011;63360;50.104;8.074;2023-09-19T10:21:26;3.90;;;1.00;;
74707;SDS011;63360;50.104;8.074;2023-09-19T10:23:58;4.75;;;0.98;;
74707;SDS011;63360;50.104;8.074;2023-09-19T10:26:28;6.32;;;1.02;;
74707;SDS011;63360;50.104;8.074;2023-09-19T10:28:57;5.50;;;1.03;;
74707;SDS011;63360;50.104;8.074;2023-09-19T10:31:26;5.95;;;1.08;;
74707;SDS011;63360;50.104;8.074;2023-09-19T10:33:52;2.97;;;0.93;;
74707;SDS011;63360;50.104;8.074;2023-09-19T10:36:19;6.25;;;0.88;;
74707;SDS011;63360;50.104;8.074;2023-09-19T10:38:46;5.40;;;0.90;;
74707;SDS011;63360;50.104;8.074;2023-09-19T10:41:14;4.37;;;1.10;;
74707;SDS011;63360;50.104;8.074;2023-09-19T10:43:42;5.22;;;0.95;;
74707;SDS011;63360;50.104;8.074;2023-09-19T10:46:11;6.28;;;1.10;;
74707;SDS011;63360;50.104;8.074;2023-09-19T10:48:38;6.80;;;1.00;;
74707;SDS011;63360;50.104;8.074;2023-09-19T10:51:08;3.55;;;1.00;;
74707;SDS011;63360;50.104;8.074;2023-09-19T10:53:47;4.17;;;0.87;;
74707;SDS011;63360;50.104;8.074;2023-09-19T10:56:16;4.47;;;0.90;;
74707;SDS011;63360;50.104;8.074;2023-09-19T10:58:44;5.22;;;1.17;;
74707;SDS011;63360;50.104;8.074;2023-09-19T11:01:11;5.68;;;0.88;;
74707;SDS011;63360;50.104;8.074;2023-09-19T11:03:41;5.45;;;1.13;;
74707;SDS011;63360;50.104;8.074;2023-09-19T11:06:17;6.10;;;1.20;;
74707;SDS011;63360;50.104;8.074;2023-09-19T11:08:58;6.95;;;1.10;;
74707;SDS011;63360;50.104;8.074;2023-09-19T11:11:45;4.47;;;1.05;;
74707;SDS011;63360;50.104;8.074;2023-09-19T11:20:14;7.00;;;1.00;;
74707;SDS011;63360;50.104;8.074;2023-09-19T11:30:37;4.47;;;0.70;;
74707;SDS011;63360;50.104;8.074;2023-09-19T11:33:15;4.83;;;1.07;;
74707;SDS011;63360;50.104;8.074;2023-09-19T11:36:29;6.40;;;1.10;;
74707;SDS011;63360;50.104;8.074;2023-09-19T11:43:46;5.18;;;1.15;;
74707;SDS011;63360;50.104;8.074;2023-09-19T11:46:12;4.00;;;0.90;;
74707;SDS011;63360;50.104;8.074;2023-09-19T11:48:42;5.82;;;0.70;;
74707;SDS011;63360;50.104;8.074;2023-09-19T11:51:13;3.13;;;0.75;;
74707;SDS011;63360;50.104;8.074;2023-09-19T11:53:42;3.28;;;0.85;;
74707;SDS011;63360;50.104;8.074;2023-09-19T11:56:10;5.57;;;0.70;;
74707;SDS011;63360;50.104;8.074;2023-09-19T11:58:37;2.57;;;0.90;;
74707;SDS011;63360;50.104;8.074;2023-09-19T12:01:04;4.00;;;0.70;;
74707;SDS011;63360;50.104;8.074;2023-09-19T12:03:34;2.15;;;0.70;;
74707;SDS011;63360;50.104;8.074;2023-09-19T12:06:12;5.88;;;0.93;;
74707;SDS011;63360;50.104;8.074;2023-09-19T12:08:42;4.13;;;0.80;;
74707;SDS011;63360;50.104;8.074;2023-09-19T12:11:13;2.67;;;0.77;;
74707;SDS011;63360;50.104;8.074;2023-09-19T12:13:44;5.45;;;0.90;;
74707;SDS011;63360;50.104;8.074;2023-09-19T12:16:20;5.68;;;0.80;;
74707;SDS011;63360;50.104;8.074;2023-09-19T12:18:50;6.05;;;1.08;;
74707;SDS011;63360;50.104;8.074;2023-09-19T12:21:23;5.45;;;0.88;;
74707;SDS011;63360;50.104;8.074;2023-09-19T12:23:59;4.30;;;0.70;;
74707;SDS011;63360;50.104;8.074;2023-09-19T12:26:26;6.50;;;1.08;;
74707;SDS011;63360;50.104;8.074;2023-09-19T12:28:55;4.45;;;1.10;;
74707;SDS011;63360;50.104;8.074;2023-09-19T12:31:22;3.15;;;0.75;;
74707;SDS011;63360;50.104;8.074;2023-09-19T12:33:53;5.72;;;1.00;;
74707;SDS011;63360;50.104;8.074;2023-09-19T12:36:20;3.47;;;0.70;;
74707;SDS011;63360;50.104;8.074;2023-09-19T12:38:51;5.47;;;1.00;;
74707;SDS011;63360;50.104;8.074;2023-09-19T12:41:19;4.65;;;1.00;;
74707;SDS011;63360;50.104;8.074;2023-09-19T12:43:47;2.83;;;0.80;;
74707;SDS011;63360;50.104;8.074;2023-09-19T12:46:14;4.72;;;0.88;;
74707;SDS011;63360;50.104;8.074;2023-09-19T12:48:46;4.27;;;0.80;;
74707;SDS011;63360;50.104;8.074;2023-09-19T12:51:14;4.50;;;0.88;;
74707;SDS011;63360;50.104;8.074;2023-09-19T12:53:43;5.28;;;0.70;;
74707;SDS011;63360;50.104;8.074;2023-09-19T12:56:15;5.20;;;0.63;;
74707;SDS011;63360;50.104;8.074;2023-09-19T13:01:15;4.00;;;0.67;;
74707;SDS011;63360;50.104;8.074;2023-09-19T13:03:42;4.47;;;0.80;;
74707;SDS011;63360;50.104;8.074;2023-09-19T13:06:09;3.83;;;0.80;;
74707;SDS011;63360;50.104;8.074;2023-09-19T13:08:39;5.80;;;0.85;;
74707;SDS011;63360;50.104;8.074;2023-09-19T13:11:11;5.28;;;0.73;;
74707;SDS011;63360;50.104;8.074;2023-09-19T13:13:43;4.87;;;0.90;;
74707;SDS011;63360;50.104;8.074;2023-09-19T13:16:16;4.60;;;1.00;;
74707;SDS011;63360;50.104;8.074;2023-09-19T13:18:49;4.90;;;0.80;;
74707;SDS011;63360;50.104;8.074;2023-09-19T13:21:32;4.63;;;0.93;;
74707;SDS011;63360;50.104;8.074;2023-09-19T13:24:19;4.60;;;0.70;;
74707;SDS011;63360;50.104;8.074;2023-09-19T13:26:46;2.53;;;0.60;;
74707;SDS011;63360;50.104;8.074;2023-09-19T13:29:12;4.07;;;0.63;;
74707;SDS011;63360;50.104;8.074;2023-09-19T13:31:40;4.43;;;0.70;;
74707;SDS011;63360;50.104;8.074;2023-09-19T13:34:08;3.65;;;0.90;;
74707;SDS011;63360;50.104;8.074;2023-09-19T13:36:34;3.95;;;0.70;;
74707;SDS011;63360;50.104;8.074;2023-09-19T13:39:00;6.50;;;0.90;;
74707;SDS011;63360;50.104;8.074;2023-09-19T13:41:27;4.90;;;0.77;;
74707;SDS011;63360;50.104;8.074;2023-09-19T13:43:54;5.18;;;0.70;;
74707;SDS011;63360;50.104;8.074;2023-09-19T13:46:23;4.20;;;0.80;;
74707;SDS011;63360;50.104;8.074;2023-09-19T13:48:52;2.97;;;0.70;;
74707;SDS011;63360;50.104;8.074;2023-09-19T13:51:21;4.37;;;0.60;;
74707;SDS011;63360;50.104;8.074;2023-09-19T13:53:51;2.85;;;0.52;;
74707;SDS011;63360;50.104;8.074;2023-09-19T13:56:18;3.13;;;0.63;;
74707;SDS011;63360;50.104;8.074;2023-09-19T13:58:44;3.85;;;1.13;;
74707;SDS011;63360;50.104;8.074;2023-09-19T14:01:11;3.35;;;0.70;;
74707;SDS011;63360;50.104;8.074;2023-09-19T14:03:39;3.07;;;0.70;;
74707;SDS011;63360;50.104;8.074;2023-09-19T14:06:06;5.88;;;0.90;;
74707;SDS011;63360;50.104;8.074;2023-09-19T14:08:32;5.68;;;0.93;;
74707;SDS011;63360;50.104;8.074;2023-09-19T14:11:05;5.40;;;0.80;;
74707;SDS011;63360;50.104;8.074;2023-09-19T14:13:31;2.80;;;0.55;;
74707;SDS011;63360;50.104;8.074;2023-09-19T14:16:02;3.23;;;0.67;;
74707;SDS011;63360;50.104;8.074;2023-09-19T14:18:30;4.07;;;0.63;;
74707;SDS011;63360;50.104;8.074;2023-09-19T14:20:57;3.45;;;0.70;;
74707;SDS011;63360;50.104;8.074;2023-09-19T14:23:23;2.75;;;0.60;;
74707;SDS011;63360;50.104;8.074;2023-09-19T14:25:50;3.47;;;0.63;;
74707;SDS011;63360;50.104;8.074;2023-09-19T14:28:18;2.60;;;0.70;;
74707;SDS011;63360;50.104;8.074;2023-09-19T14:30:44;5.60;;;1.00;;
74707;SDS011;63360;50.104;8.074;2023-09-19T14:33:12;3.97;;;0.70;;
74707;SDS011;63360;50.104;8.074;2023-09-19T14:35:38;3.25;;;0.60;;
74707;SDS011;63360;50.104;8.074;2023-09-19T14:38:05;4.03;;;0.70;;
74707;SDS011;63360;50.104;8.074;2023-09-19T14:40:32;4.10;;;0.63;;
74707;SDS011;63360;50.104;8.074;2023-09-19T14:42:59;3.78;;;0.80;;
74707;SDS011;63360;50.104;8.074;2023-09-19T14:45:25;1.63;;;0.50;;
74707;SDS011;63360;50.104;8.074;2023-09-19T14:47:52;3.55;;;0.65;;
74707;SDS011;63360;50.104;8.074;2023-09-19T14:50:21;4.53;;;0.70;;
74707;SDS011;63360;50.104;8.074;2023-09-19T14:52:48;4.93;;;0.70;;
74707;SDS011;63360;50.104;8.074;2023-09-19T14:55:19;2.33;;;0.60;;
74707;SDS011;63360;50.104;8.074;2023-09-19T14:57:48;3.15;;;0.55;;
74707;SDS011;63360;50.104;8.074;2023-09-19T15:00:15;5.22;;;0.70;;
74707;SDS011;63360;50.104;8.074;2023-09-19T15:02:42;2.47;;;0.60;;
74707;SDS011;63360;50.104;8.074;2023-09-19T15:05:12;2.13;;;0.70;;
74707;SDS011;63360;50.104;8.074;2023-09-19T15:07:38;3.88;;;0.70;;
74707;SDS011;63360;50.104;8.074;2023-09-19T15:10:06;3.80;;;0.77;;
74707;SDS011;63360;50.104;8.074;2023-09-19T15:12:36;2.17;;;0.47;;
74707;SDS011;63360;50.104;8.074;2023-09-19T15:15:04;4.47;;;0.70;;
74707;SDS011;63360;50.104;8.074;2023-09-19T15:17:35;2.80;;;0.73;;
74707;SDS011;63360;50.104;8.074;2023-09-19T15:20:02;2.70;;;0.50;;
74707;SDS011;63360;50.104;8.074;2023-09-19T15:22:28;3.83;;;0.70;;
74707;SDS011;63360;50.104;8.074;2023-09-19T15:24:55;2.38;;;0.57;;
74707;SDS011;63360;50.104;8.074;2023-09-19T15:27:22;5.50;;;0.50;;
74707;SDS011;63360;50.104;8.074;2023-09-19T15:29:48;1.47;;;0.50;;
74707;SDS011;63360;50.104;8.074;2023-09-19T15:32:15;3.70;;;0.52;;
74707;SDS011;63360;50.104;8.074;2023-09-19T15:34:41;3.92;;;0.50;;